Whitetop, Virginia
Current Conditions -  °F | °C
As of 10:55 PM on Sunday 23 Nov 2014 (Local Time) from KGEV Reporting Station
Drizzle Drizzle  
Wind Chill:   Ceiling: 300
Heat Index: 10°   Visibility: 3mi
Dew Point: 10°   Wind: 6mph
Humidity: 99%   Direction: 160°SSE
Pressure: 29.7"   Gusts: NA
Location:  36.6°N, 81.63°W
Report Text: KGEV 240355Z AUTO 16005KT 3SM -DZ OVC003 10/10 A2970 RMK AO2 T00980097
Loading
Personal Weather Stations






























Interactive Weather Map New forecast layout! Learn more

10-Day Weather Forecast

Advertisements
Track Severe Weather on mobile